Time;durP1;ratioP1;P1;durP2;ratioP2;P2;SDS_P1;SDS_P2;PMS_P1;PMS_P2;Temp;Humidity;BMP_temperature;BMP_pressure;BME280_temperature;BME280_humidity;BME280_pressure;Samples;Min_cycle;Max_cycle;Signal;HPM_P1;HPM_P2
2022/08/13 00:03:14;;;;;;;2.45;1.73;;;22.00;50.40;;;;;;10356146;28;20189;-76
2022/08/13 00:08:38;;;;;;;3.17;1.60;;;22.00;99.90;;;;;;10341734;28;20201;-76
2022/08/13 00:14:00;;;;;;;2.55;1.85;;;22.00;99.90;;;;;;10355375;28;20327;-76
2022/08/13 00:19:26;;;;;;;3.55;2.00;;;22.00;99.90;;;;;;10341232;28;20210;-76
2022/08/13 00:24:48;;;;;;;2.90;1.80;;;22.00;99.90;;;;;;10341343;28;20518;-76
2022/08/13 00:30:11;;;;;;;3.67;1.95;;;22.00;99.90;;;;;;10361376;28;20236;-76
2022/08/13 00:35:36;;;;;;;3.33;2.08;;;22.00;99.90;;;;;;10395747;28;20225;-76
2022/08/13 00:41:00;;;;;;;3.15;1.77;;;22.00;99.90;;;;;;10378485;28;20201;-76
2022/08/13 00:46:21;;;;;;;2.50;2.03;;;22.00;99.90;;;;;;10395975;28;20192;-76
2022/08/13 00:51:44;;;;;;;3.60;2.38;;;22.00;99.90;;;;;;10387931;28;20297;-76
2022/08/13 00:57:06;;;;;;;2.88;2.15;;;22.00;99.90;;;;;;10350697;28;20257;-76
2022/08/13 01:02:28;;;;;;;2.80;2.10;;;22.00;99.90;;;;;;10337573;28;20551;-76
2022/08/13 01:07:50;;;;;;;2.33;1.73;;;22.00;93.80;;;;;;10313710;28;20194;-77
2022/08/13 01:13:13;;;;;;;2.50;2.08;;;22.10;1.00;;;;;;10314500;28;20227;-76
2022/08/13 01:18:39;;;;;;;3.88;1.95;;;22.00;1.00;;;;;;10314246;28;20267;-79
2022/08/13 01:24:00;;;;;;;2.05;1.83;;;21.90;14.80;;;;;;10314687;28;20198;-79
2022/08/13 01:29:24;;;;;;;2.50;1.92;;;21.90;1.00;;;;;;10329858;28;20697;-77
2022/08/13 01:34:48;;;;;;;2.33;1.73;;;21.90;10.40;;;;;;10402220;28;20232;-78
2022/08/13 01:40:10;;;;;;;2.00;1.80;;;21.90;27.00;;;;;;10402164;28;20189;-78
2022/08/13 01:45:33;;;;;;;3.33;1.90;;;21.90;16.30;;;;;;10401908;28;20200;-77
2022/08/13 01:50:55;;;;;;;2.20;1.83;;;21.90;19.20;;;;;;10387557;28;20189;-78
2022/08/13 01:56:21;;;;;;;2.53;2.13;;;21.90;25.30;;;;;;10335323;28;20542;-77
2022/08/13 02:01:45;;;;;;;3.53;1.95;;;21.90;19.40;;;;;;10329372;28;20202;-76
2022/08/13 02:07:08;;;;;;;2.33;1.98;;;21.90;1.00;;;;;;10320323;28;20199;-77
2022/08/13 02:12:30;;;;;;;2.17;1.98;;;21.90;1.00;;;;;;10318911;28;20440;-78
2022/08/13 02:17:52;;;;;;;2.25;1.67;;;21.90;1.00;;;;;;10318594;28;20408;-76
2022/08/13 02:23:25;;;;;;;1.77;1.50;;;21.90;1.00;;;;;;10318705;28;20580;-78
2022/08/13 02:28:46;;;;;;;3.40;1.77;;;21.90;1.00;;;;;;10288506;28;20246;-76
2022/08/13 02:34:10;;;;;;;1.48;1.33;;;21.90;1.00;;;;;;10318055;28;20462;-76
2022/08/13 02:39:32;;;;;;;1.75;1.60;;;21.90;1.00;;;;;;10318734;28;20262;-76
2022/08/13 02:44:53;;;;;;;2.00;1.80;;;22.00;1.00;;;;;;10304186;28;20278;-75
2022/08/13 02:50:14;;;;;;;1.95;1.70;;;21.90;1.00;;;;;;10318814;28;20198;-77
2022/08/13 02:55:37;;;;;;;1.67;1.50;;;22.00;1.00;;;;;;10352591;28;20217;-76
2022/08/13 03:01:00;;;;;;;3.58;2.10;;;22.00;1.00;;;;;;10327612;28;20399;-76
2022/08/13 03:06:24;;;;;;;1.85;1.60;;;22.00;1.00;;;;;;10324065;28;20199;-77
2022/08/13 03:11:45;;;;;;;2.40;1.90;;;21.90;1.00;;;;;;10316639;28;20198;-76
2022/08/13 03:17:07;;;;;;;2.92;1.80;;;21.80;1.00;;;;;;10317507;28;20198;-76
2022/08/13 03:22:28;;;;;;;4.43;1.73;;;21.80;1.00;;;;;;10317477;28;20198;-76
2022/08/13 03:27:50;;;;;;;2.88;1.98;;;21.70;1.00;;;;;;10317009;28;20230;-76
2022/08/13 03:33:17;;;;;;;2.60;2.22;;;21.80;5.70;;;;;;10389353;28;20231;-78
2022/08/13 03:38:39;;;;;;;5.75;2.38;;;21.60;6.50;;;;;;10382973;28;20193;-77
2022/08/13 03:44:02;;;;;;;2.47;2.13;;;21.60;99.90;;;;;;10397330;28;20193;-76
2022/08/13 03:49:24;;;;;;;3.58;1.95;;;21.40;1.00;;;;;;10378979;28;20504;-78
2022/08/13 03:54:46;;;;;;;4.70;2.30;;;21.30;1.00;;;;;;10356760;28;20253;-76
2022/08/13 04:00:12;;;;;;;2.63;1.98;;;21.20;99.90;;;;;;10355120;28;20197;-76
2022/08/13 04:05:36;;;;;;;2.55;2.15;;;21.20;99.90;;;;;;10330756;28;20589;-77
2022/08/13 04:10:57;;;;;;;6.85;3.08;;;21.20;99.90;;;;;;10314927;28;20194;-77
2022/08/13 04:16:21;;;;;;;3.42;2.40;;;21.30;99.90;;;;;;10314838;28;20230;-76
2022/08/13 04:21:43;;;;;;;5.70;2.30;;;21.30;99.90;;;;;;10330511;28;20195;-76
2022/08/13 04:27:05;;;;;;;5.22;2.47;;;21.30;99.90;;;;;;10315129;28;20193;-77
2022/08/13 04:32:27;;;;;;;6.30;2.45;;;21.30;99.90;;;;;;10375367;28;20208;-76
2022/08/13 04:37:51;;;;;;;3.17;2.47;;;21.40;99.90;;;;;;10381424;28;20220;-76
2022/08/13 04:43:14;;;;;;;5.97;2.67;;;21.40;99.90;;;;;;10381291;28;20193;-76
2022/08/13 04:48:35;;;;;;;3.58;2.10;;;21.50;99.90;;;;;;10381107;28;20229;-76
2022/08/13 04:53:57;;;;;;;4.25;2.30;;;21.50;1.00;;;;;;10347030;28;20225;-76
2022/08/13 04:59:20;;;;;;;4.97;2.45;;;21.50;99.90;;;;;;10355185;28;20194;-76
2022/08/13 05:04:41;;;;;;;4.22;2.83;;;21.50;99.90;;;;;;10313905;28;20245;-77
2022/08/13 05:10:03;;;;;;;3.53;2.03;;;21.50;99.90;;;;;;10321520;28;20200;-76
2022/08/13 05:15:24;;;;;;;3.28;2.08;;;21.60;99.90;;;;;;10337418;28;20234;-76
2022/08/13 05:20:46;;;;;;;2.38;2.00;;;21.60;99.90;;;;;;10322118;28;20199;-77
2022/08/13 05:26:10;;;;;;;2.80;1.63;;;21.80;99.90;;;;;;10321616;28;20194;-79
2022/08/13 05:31:34;;;;;;;3.25;2.40;;;21.90;1.00;;;;;;10366687;28;20237;-79
2022/08/13 05:36:55;;;;;;;4.82;1.88;;;22.10;1.00;;;;;;10402280;28;20523;-79
2022/08/13 05:42:21;;;;;;;2.05;1.67;;;22.20;1.00;;;;;;10387884;28;20200;-79
2022/08/13 05:47:43;;;;;;;4.05;1.77;;;22.40;1.00;;;;;;10402270;28;20197;-80
2022/08/13 05:53:09;;;;;;;2.80;1.85;;;22.50;1.00;;;;;;10375207;28;20226;-80
2022/08/13 05:58:32;;;;;;;11.43;3.85;;;22.70;99.90;;;;;;10361164;28;20221;-80
2022/08/13 06:03:53;;;;;;;7.35;3.53;;;22.90;16.70;;;;;;10332251;28;20484;-79
2022/08/13 06:09:15;;;;;;;7.68;2.22;;;23.20;1.00;;;;;;10319218;28;20199;-79
2022/08/13 06:14:36;;;;;;;4.15;1.95;;;23.50;99.90;;;;;;10319406;28;20476;-79
2022/08/13 06:20:00;;;;;;;3.85;1.98;;;24.00;1.00;;;;;;10334811;28;20451;-78
2022/08/13 06:25:21;;;;;;;4.50;2.08;;;24.50;94.00;;;;;;10318985;28;20205;-78
2022/08/13 06:30:44;;;;;;;4.45;2.75;;;25.30;1.00;;;;;;10351445;28;20225;-78
2022/08/13 06:36:10;;;;;;;5.85;1.90;;;25.70;99.90;;;;;;10399873;28;20221;-78
2022/08/13 06:41:34;;;;;;;2.67;1.73;;;26.40;1.00;;;;;;10382431;28;20488;-79
2022/08/13 06:47:04;;;;;;;5.00;1.88;;;27.40;1.00;;;;;;10368233;28;20208;-79
2022/08/13 06:52:27;;;;;;;3.88;2.00;;;28.20;1.00;;;;;;10379639;28;20443;-79
2022/08/13 06:57:51;;;;;;;4.15;1.90;;;28.90;1.00;;;;;;10358761;28;20355;-78
2022/08/13 07:03:12;;;;;;;3.67;1.83;;;29.40;99.90;;;;;;10358428;28;20192;-79
2022/08/13 07:08:35;;;;;;;3.72;2.10;;;29.80;30.30;;;;;;10358024;28;20202;-79
2022/08/13 07:14:01;;;;;;;5.97;2.65;;;30.30;1.00;;;;;;10357860;28;20528;-81
2022/08/13 07:19:22;;;;;;;5.50;2.08;;;30.90;1.00;;;;;;10357739;28;20216;-79
2022/08/13 07:24:45;;;;;;;5.80;2.42;;;31.20;1.00;;;;;;10326415;28;20209;-78
2022/08/13 07:30:07;;;;;;;9.02;2.53;;;31.40;1.00;;;;;;10361484;28;20252;-79
2022/08/13 07:35:34;;;;;;;4.57;1.70;;;31.70;99.90;;;;;;10382812;28;20228;-78
2022/08/13 07:40:55;;;;;;;4.25;1.60;;;31.90;99.90;;;;;;10352876;28;20201;-78
2022/08/13 07:46:18;;;;;;;2.08;1.70;;;32.10;99.90;;;;;;10382920;28;20488;-78
2022/08/13 07:51:43;;;;;;;5.53;1.80;;;31.90;99.90;;;;;;10358655;28;20202;-78
2022/08/13 07:57:05;;;;;;;3.92;1.70;;;31.80;99.90;;;;;;10320964;28;20233;-77
2022/08/13 08:02:26;;;;;;;7.78;1.52;;;31.60;99.90;;;;;;10322649;28;20201;-77
2022/08/13 08:07:48;;;;;;;7.53;2.13;;;31.80;99.90;;;;;;10284866;28;20286;-77
2022/08/13 08:13:10;;;;;;;2.60;1.67;;;32.20;99.90;;;;;;10315746;28;20220;-78
2022/08/13 08:18:33;;;;;;;3.55;1.75;;;32.80;99.90;;;;;;10315121;28;20221;-78
2022/08/13 08:23:59;;;;;;;9.82;2.25;;;33.00;99.90;;;;;;10315702;28;20190;-78
2022/08/13 08:29:22;;;;;;;2.33;1.40;;;33.10;99.90;;;;;;10320690;28;20562;-78
2022/08/13 08:34:46;;;;;;;3.17;1.73;;;33.70;99.90;;;;;;10381544;28;20221;-77
2022/08/13 08:45:53;;;;;;;8.52;1.95;;;34.10;99.90;;;;;;10409100;28;20192;-78
2022/08/13 08:51:18;;;;;;;4.10;1.35;;;34.60;99.90;;;;;;10391091;28;20203;-78
2022/08/13 08:56:41;;;;;;;3.38;1.52;;;34.60;99.90;;;;;;10360480;28;20225;-78
2022/08/13 09:02:16;;;;;;;4.03;1.67;;;34.60;98.40;;;;;;10368184;28;20193;-78
2022/08/13 09:07:41;;;;;;;6.22;1.95;;;34.80;90.00;;;;;;10327864;28;20261;-77
2022/08/13 09:13:04;;;;;;;4.88;2.03;;;35.20;78.60;;;;;;10327742;28;20265;-79
2022/08/13 09:18:26;;;;;;;4.93;2.00;;;35.60;55.20;;;;;;10326455;28;20258;-79
2022/08/13 09:23:48;;;;;;;5.22;1.65;;;35.90;40.70;;;;;;10327703;28;20213;-77
2022/08/13 09:29:11;;;;;;;5.93;2.15;;;36.20;24.80;;;;;;10316244;28;20225;-79
2022/08/13 09:34:32;;;;;;;7.00;2.00;;;35.60;17.40;;;;;;10393447;28;20224;-79
2022/08/13 09:40:02;;;;;;;3.53;1.60;;;35.40;11.60;;;;;;10377204;28;20201;-77
2022/08/13 09:45:25;;;;;;;6.28;2.00;;;35.10;7.50;;;;;;10393327;28;20201;-78
2022/08/13 09:50:47;;;;;;;5.78;1.95;;;34.50;9.10;;;;;;10369901;28;20500;-79
2022/08/13 09:56:08;;;;;;;5.57;2.05;;;34.30;8.10;;;;;;10319208;28;20229;-78
2022/08/13 10:01:32;;;;;;;2.53;1.77;;;33.90;4.30;;;;;;10330053;28;20276;-79
2022/08/13 10:06:56;;;;;;;4.65;1.77;;;34.00;2.80;;;;;;10319216;28;20366;-78
2022/08/13 10:12:18;;;;;;;5.40;1.50;;;34.90;1.00;;;;;;10319082;28;20209;-78
2022/08/13 10:17:55;;;;;;;4.13;1.27;;;35.50;1.00;;;;;;10305364;28;20226;-81
2022/08/13 10:23:17;;;;;;;2.85;1.80;;;35.90;1.00;;;;;;10305040;28;20202;-79
2022/08/13 10:28:38;;;;;;;7.45;1.70;;;35.90;1.00;;;;;;10292322;28;20420;-81
2022/08/13 10:34:01;;;;;;;3.67;1.70;;;35.90;1.00;;;;;;10369055;28;20515;-81
2022/08/13 10:39:22;;;;;;;3.53;1.73;;;35.50;1.00;;;;;;10385285;28;20197;-78
2022/08/13 10:44:43;;;;;;;3.60;1.88;;;35.60;1.00;;;;;;10368611;28;20205;-80
2022/08/13 10:50:05;;;;;;;4.25;1.70;;;35.70;1.00;;;;;;10384962;28;20488;-81
2022/08/13 10:55:28;;;;;;;6.13;2.10;;;35.80;1.00;;;;;;10336414;28;20253;-79
2022/08/13 11:00:50;;;;;;;7.07;1.88;;;36.20;1.00;;;;;;10356956;28;20204;-79
2022/08/13 11:06:12;;;;;;;10.90;2.42;;;36.30;1.00;;;;;;10317200;28;20195;-78
2022/08/13 11:11:34;;;;;;;4.80;1.60;;;35.80;1.00;;;;;;10317912;28;20270;-80
2022/08/13 11:16:58;;;;;;;2.55;1.45;;;35.00;1.00;;;;;;10317806;28;20241;-81
2022/08/13 11:22:28;;;;;;;5.95;1.90;;;34.50;1.00;;;;;;10317513;28;20198;-80
2022/08/13 11:27:49;;;;;;;3.40;1.65;;;34.10;1.00;;;;;;10316834;28;20238;-81
2022/08/13 11:33:12;;;;;;;5.25;2.10;;;34.00;1.00;;;;;;10376760;28;20208;-79
2022/08/13 11:38:34;;;;;;;3.42;2.00;;;34.20;1.00;;;;;;10397718;28;20193;-79
2022/08/13 11:43:55;;;;;;;3.85;2.10;;;34.10;1.00;;;;;;10397625;28;20201;-79
2022/08/13 11:49:17;;;;;;;5.43;2.22;;;34.50;1.00;;;;;;10397471;28;20235;-79
2022/08/13 11:54:38;;;;;;;4.63;1.88;;;35.20;1.00;;;;;;10340059;28;20249;-80
2022/08/13 12:00:00;;;;;;;5.35;2.03;;;35.50;1.00;;;;;;10356366;28;20492;-80
2022/08/13 12:05:24;;;;;;;4.30;1.63;;;35.70;1.00;;;;;;10301416;28;20203;-80
2022/08/13 12:10:47;;;;;;;13.07;2.40;;;36.10;1.00;;;;;;10314102;28;20218;-80
2022/08/13 12:16:08;;;;;;;2.50;1.60;;;36.30;1.00;;;;;;10314904;28;20225;-81
2022/08/13 12:21:30;;;;;;;3.35;1.48;;;36.30;1.00;;;;;;10314815;28;20391;-80
2022/08/13 12:26:51;;;;;;;3.72;1.75;;;36.40;1.00;;;;;;10315244;28;20245;-80
2022/08/13 12:32:14;;;;;;;3.95;2.15;;;36.10;1.00;;;;;;10380558;28;20241;-81
2022/08/13 12:37:39;;;;;;;7.15;2.03;;;36.10;1.00;;;;;;10395723;28;20217;-81
2022/08/13 12:43:01;;;;;;;2.78;1.73;;;36.00;1.00;;;;;;10381289;28;20196;-81
2022/08/13 12:48:28;;;;;;;2.05;1.88;;;36.00;1.00;;;;;;10364810;28;20208;-82
2022/08/13 12:53:50;;;;;;;5.72;2.20;;;35.80;1.00;;;;;;10362706;28;20228;-78
2022/08/13 12:59:14;;;;;;;5.15;1.65;;;35.80;1.00;;;;;;10354975;28;20265;-79
2022/08/13 13:04:41;;;;;;;5.97;2.00;;;35.70;1.00;;;;;;10333838;28;20572;-80
2022/08/13 13:10:06;;;;;;;3.35;1.65;;;35.30;1.00;;;;;;10314606;28;20421;-79
2022/08/13 13:15:28;;;;;;;6.55;2.13;;;34.60;1.00;;;;;;10314567;28;20236;-80
2022/08/13 13:20:50;;;;;;;3.83;1.80;;;34.30;1.00;;;;;;10314312;28;20197;-81
2022/08/13 13:26:11;;;;;;;8.10;2.15;;;33.90;1.00;;;;;;10337131;28;20229;-82
2022/08/13 13:31:34;;;;;;;2.38;2.13;;;34.00;1.00;;;;;;10367648;28;20558;-81
2022/08/13 13:36:56;;;;;;;4.45;1.73;;;34.10;1.00;;;;;;10402371;28;20244;-80
2022/08/13 13:42:17;;;;;;;3.50;1.77;;;34.20;1.00;;;;;;10402418;28;20193;-78
2022/08/13 13:47:39;;;;;;;3.85;2.00;;;34.20;1.00;;;;;;10402109;28;20216;-80
2022/08/13 13:53:01;;;;;;;1.90;1.33;;;34.10;1.00;;;;;;10375755;28;20197;-79
2022/08/13 13:58:38;;;;;;;1.77;1.40;;;34.00;1.00;;;;;;10360138;28;20206;-80
2022/08/13 14:04:00;;;;;;;1.58;1.48;;;33.80;1.00;;;;;;10346253;28;20198;-80
2022/08/13 14:09:22;;;;;;;6.72;1.95;;;33.80;1.00;;;;;;10320743;28;20233;-78
2022/08/13 14:14:43;;;;;;;3.58;1.63;;;33.70;1.00;;;;;;10320267;28;20224;-80
2022/08/13 14:20:05;;;;;;;4.70;1.88;;;33.50;1.00;;;;;;10319753;28;20195;-81
2022/08/13 14:25:30;;;;;;;3.80;2.10;;;33.20;1.00;;;;;;10318781;28;20485;-81
2022/08/13 14:30:53;;;;;;;3.28;1.65;;;33.20;1.00;;;;;;10353047;28;20251;-78
2022/08/13 14:36:15;;;;;;;2.45;1.70;;;32.80;1.00;;;;;;10399290;28;20243;-81
2022/08/13 14:41:40;;;;;;;4.75;2.08;;;32.60;1.00;;;;;;10400213;28;20463;-82
2022/08/13 14:47:01;;;;;;;4.15;1.80;;;32.20;1.00;;;;;;10385182;28;20197;-81
2022/08/13 14:52:27;;;;;;;4.68;1.80;;;31.70;1.00;;;;;;10380794;28;20548;-81
2022/08/13 14:57:50;;;;;;;2.40;1.83;;;31.70;1.00;;;;;;10358774;28;20412;-82
2022/08/13 15:03:22;;;;;;;4.32;1.75;;;31.50;1.00;;;;;;10340868;28;20198;-81
2022/08/13 15:08:44;;;;;;;3.72;1.70;;;31.20;1.00;;;;;;10358420;28;20525;-79
2022/08/13 15:14:06;;;;;;;4.68;2.17;;;31.00;1.00;;;;;;10358097;28;20210;-81
2022/08/13 15:19:27;;;;;;;3.20;1.98;;;30.90;1.00;;;;;;10356860;28;20201;-80
2022/08/13 15:24:48;;;;;;;3.95;1.70;;;30.70;1.00;;;;;;10357879;28;20260;-80
2022/08/13 15:30:15;;;;;;;6.13;2.00;;;30.50;1.00;;;;;;10332923;28;20240;-79
2022/08/13 15:35:46;;;;;;;1.55;1.45;;;30.30;1.00;;;;;;10383001;28;20220;-81
2022/08/13 15:41:08;;;;;;;2.47;1.65;;;30.10;1.00;;;;;;10353161;28;20272;-79
2022/08/13 15:46:30;;;;;;;7.38;2.00;;;29.90;1.00;;;;;;10381802;28;20201;-78
2022/08/13 15:51:51;;;;;;;4.63;1.70;;;29.50;1.00;;;;;;10387268;28;20191;-77
2022/08/13 15:57:13;;;;;;;6.45;1.70;;;29.30;1.00;;;;;;10338691;28;20467;-77
2022/08/13 16:02:37;;;;;;;3.78;1.80;;;29.10;1.00;;;;;;10352575;28;20199;-77
2022/08/13 16:08:04;;;;;;;2.00;1.80;;;28.90;1.00;;;;;;10302236;28;20259;-77
2022/08/13 16:13:30;;;;;;;3.05;2.13;;;28.80;1.00;;;;;;10330928;28;20245;-77
2022/08/13 16:18:52;;;;;;;4.78;1.90;;;28.80;1.00;;;;;;10315733;28;20355;-77
2022/08/13 16:24:14;;;;;;;6.88;2.13;;;28.60;1.00;;;;;;10300933;28;20202;-76
2022/08/13 16:29:38;;;;;;;5.68;2.55;;;28.50;1.00;;;;;;10328846;28;20300;-78
2022/08/13 16:34:59;;;;;;;2.90;2.00;;;28.30;1.00;;;;;;10381482;28;20221;-77
2022/08/13 16:40:21;;;;;;;4.03;2.20;;;28.10;1.00;;;;;;10396184;28;20204;-77
2022/08/13 16:45:45;;;;;;;4.70;2.17;;;28.00;1.70;;;;;;10395716;28;20189;-77
2022/08/13 16:51:06;;;;;;;4.93;2.20;;;27.90;12.20;;;;;;10395831;28;20519;-77
2022/08/13 16:56:30;;;;;;;3.58;2.47;;;27.90;20.70;;;;;;10355673;28;20275;-77
2022/08/13 17:01:54;;;;;;;5.53;2.30;;;27.80;36.50;;;;;;10362812;28;20244;-77
2022/08/13 17:12:56;;;;;;;7.22;3.70;;;27.50;79.40;;;;;;10322368;28;20587;-76
2022/08/13 17:18:17;;;;;;;5.90;2.70;;;27.50;99.90;;;;;;10321341;28;20224;-76
2022/08/13 17:23:38;;;;;;;5.38;2.10;;;27.30;99.90;;;;;;10322203;28;20194;-77
2022/08/13 17:29:00;;;;;;;2.95;1.90;;;27.10;99.90;;;;;;10325811;28;20241;-78
2022/08/13 17:34:24;;;;;;;3.28;1.98;;;26.80;99.90;;;;;;10388144;28;20401;-77
2022/08/13 17:39:45;;;;;;;9.68;2.75;;;26.70;99.90;;;;;;10402345;28;20213;-77
2022/08/13 17:45:08;;;;;;;6.88;2.33;;;26.60;99.90;;;;;;10384519;28;20393;-77
2022/08/13 17:50:34;;;;;;;3.38;1.92;;;26.40;99.90;;;;;;10401912;28;20385;-77
2022/08/13 17:55:56;;;;;;;3.25;1.85;;;26.30;99.90;;;;;;10337401;28;20421;-77
2022/08/13 18:01:20;;;;;;;6.10;1.70;;;26.10;99.90;;;;;;10359910;28;20206;-77
2022/08/13 18:06:44;;;;;;;3.88;2.15;;;25.90;99.90;;;;;;10342418;28;20202;-80
2022/08/13 18:12:06;;;;;;;3.83;1.83;;;25.80;99.90;;;;;;10359269;28;20270;-77
2022/08/13 18:17:27;;;;;;;3.28;2.33;;;25.60;99.90;;;;;;10360404;28;20225;-77
2022/08/13 18:22:52;;;;;;;3.78;1.98;;;25.60;1.00;;;;;;10360247;28;20194;-78
2022/08/13 18:28:14;;;;;;;4.80;2.10;;;25.50;1.00;;;;;;10359523;28;20229;-77
2022/08/13 18:33:37;;;;;;;2.30;1.83;;;25.30;1.00;;;;;;10380967;28;20204;-78
2022/08/13 18:38:59;;;;;;;3.88;2.00;;;25.20;1.00;;;;;;10400158;28;20225;-81
2022/08/13 18:44:21;;;;;;;3.45;2.00;;;25.00;1.00;;;;;;10399900;28;20232;-77
2022/08/13 18:49:42;;;;;;;2.47;2.08;;;24.80;27.50;;;;;;10399665;28;20217;-77
2022/08/13 18:55:07;;;;;;;5.93;3.03;;;24.80;99.90;;;;;;10341907;28;20256;-78
2022/08/13 19:00:29;;;;;;;5.82;2.72;;;24.70;99.90;;;;;;10343850;28;20194;-77
2022/08/13 19:05:52;;;;;;;3.33;2.85;;;;;;;;;;10303569;28;20194;-77
2022/08/13 19:11:14;;;;;;;3.85;2.60;;;24.50;1.00;;;;;;10303405;28;20205;-77
2022/08/13 19:16:35;;;;;;;4.18;2.60;;;24.40;1.00;;;;;;10317032;28;20222;-78
2022/08/13 19:21:57;;;;;;;4.57;2.30;;;24.30;99.90;;;;;;10317376;28;20282;-78
2022/08/13 19:27:19;;;;;;;2.85;2.00;;;24.30;1.00;;;;;;10317024;28;20384;-80
2022/08/13 19:32:42;;;;;;;4.85;2.22;;;24.20;21.50;;;;;;10381467;28;20197;-77
2022/08/13 19:38:05;;;;;;;3.85;2.20;;;24.10;1.00;;;;;;10366154;28;20228;-78
2022/08/13 19:43:28;;;;;;;3.35;1.90;;;23.90;1.00;;;;;;10397740;28;20220;-77
2022/08/13 19:48:49;;;;;;;2.38;1.67;;;23.80;99.90;;;;;;10397352;28;20474;-77
2022/08/13 19:54:11;;;;;;;3.25;1.88;;;23.70;99.90;;;;;;10346588;28;20209;-78
2022/08/13 19:59:32;;;;;;;4.30;2.03;;;23.70;99.90;;;;;;10341924;28;20228;-78
2022/08/13 20:04:55;;;;;;;5.47;2.30;;;23.60;1.00;;;;;;10319863;28;20248;-77
2022/08/13 20:10:17;;;;;;;5.85;2.17;;;23.50;99.90;;;;;;10300724;28;20198;-77
2022/08/13 20:15:39;;;;;;;7.50;2.35;;;23.50;1.00;;;;;;10314875;28;20228;-80
2022/08/13 20:21:01;;;;;;;2.65;1.95;;;23.20;26.80;;;;;;10330740;28;20278;-79
2022/08/13 20:26:26;;;;;;;3.47;2.17;;;;;;;;;;10314566;28;20198;-77
2022/08/13 20:31:47;;;;;;;5.85;2.22;;;23.10;99.90;;;;;;10362782;28;20437;-81
2022/08/13 20:37:09;;;;;;;2.92;2.05;;;23.00;99.90;;;;;;10381082;28;20221;-79
2022/08/13 20:42:30;;;;;;;3.45;2.10;;;;;;;;;;10396169;28;20189;-79
2022/08/13 20:47:53;;;;;;;4.65;2.10;;;22.80;99.90;;;;;;10378362;28;20226;-77
2022/08/13 20:53:17;;;;;;;6.88;1.92;;;22.80;99.90;;;;;;10367891;28;20216;-78
2022/08/13 20:58:38;;;;;;;2.53;1.63;;;22.70;99.90;;;;;;10353823;28;20260;-78
2022/08/13 21:04:00;;;;;;;4.38;2.00;;;22.60;99.90;;;;;;10325840;28;20190;-78
2022/08/13 21:09:23;;;;;;;4.90;1.88;;;22.60;99.90;;;;;;10300000;28;20221;-78
2022/08/13 21:14:45;;;;;;;4.65;2.22;;;22.60;99.90;;;;;;10314475;28;20245;-77
2022/08/13 21:20:08;;;;;;;4.13;2.03;;;22.60;99.90;;;;;;10329214;28;20327;-78
2022/08/13 21:25:29;;;;;;;3.63;1.70;;;22.60;99.90;;;;;;10314469;28;20222;-79
2022/08/13 21:30:51;;;;;;;2.92;1.58;;;22.60;82.70;;;;;;10348348;28;20475;-80
2022/08/13 21:36:13;;;;;;;2.72;1.80;;;22.60;21.50;;;;;;10377243;28;20232;-79
2022/08/13 21:41:34;;;;;;;2.05;1.70;;;22.50;1.00;;;;;;10380397;28;20193;-77
2022/08/13 21:46:55;;;;;;;2.75;1.70;;;22.50;1.00;;;;;;10384442;28;20224;-78
2022/08/13 21:52:17;;;;;;;4.20;2.05;;;22.50;1.00;;;;;;10384705;28;20221;-79
2022/08/13 21:57:39;;;;;;;4.75;1.90;;;22.50;1.00;;;;;;10360988;28;20252;-78
2022/08/13 22:03:02;;;;;;;2.13;1.55;;;22.40;1.00;;;;;;10346379;28;20190;-76
2022/08/13 22:08:24;;;;;;;8.32;1.85;;;22.40;1.00;;;;;;10359726;28;20229;-77
2022/08/13 22:13:47;;;;;;;3.80;1.80;;;22.40;1.00;;;;;;10360556;28;20216;-78
2022/08/13 22:19:08;;;;;;;5.35;1.80;;;22.30;1.00;;;;;;10345630;28;20257;-79
2022/08/13 22:24:29;;;;;;;2.60;1.90;;;22.20;1.00;;;;;;10345403;28;20194;-79
2022/08/13 22:35:31;;;;;;;4.93;1.90;;;22.30;1.00;;;;;;10382452;28;20236;-79
2022/08/13 22:40:53;;;;;;;4.13;1.58;;;22.20;1.00;;;;;;10382708;28;20215;-79
2022/08/13 22:46:15;;;;;;;1.95;1.58;;;22.20;1.00;;;;;;10399884;28;20189;-79
2022/08/13 22:51:36;;;;;;;5.57;1.80;;;22.10;1.00;;;;;;10379400;28;20198;-77
2022/08/13 22:56:57;;;;;;;3.42;1.98;;;22.10;1.00;;;;;;10338315;28;20236;-77
2022/08/13 23:02:19;;;;;;;6.50;2.20;;;22.00;1.00;;;;;;10342613;28;20378;-77
2022/08/13 23:07:40;;;;;;;4.35;1.80;;;22.10;67.60;;;;;;10303936;28;20205;-77
2022/08/13 23:13:11;;;;;;;2.72;1.80;;;22.00;99.90;;;;;;10303478;28;20293;-76
2022/08/13 23:18:32;;;;;;;4.50;2.53;;;22.00;99.90;;;;;;10317677;28;20289;-77
2022/08/13 23:23:54;;;;;;;5.95;1.80;;;22.00;99.90;;;;;;10316941;28;20270;-77
2022/08/13 23:29:16;;;;;;;4.75;2.00;;;21.70;1.00;;;;;;10341134;28;20536;-80
2022/08/13 23:34:38;;;;;;;3.83;1.90;;;21.80;1.00;;;;;;10383099;28;20412;-80
2022/08/13 23:40:00;;;;;;;2.33;1.67;;;21.80;1.00;;;;;;10366812;28;20237;-80
2022/08/13 23:45:23;;;;;;;2.70;1.70;;;;;;;;;;10382719;28;20209;-79
2022/08/13 23:50:46;;;;;;;4.95;1.90;;;;;;;;;;10397668;28;20395;-77
2022/08/13 23:56:08;;;;;;;3.42;2.10;;;;;;;;;;10328870;28;20236;-77
